createdAt,value
2023-05-04T00:00:12.452Z,84.94
2023-05-04T00:06:18.220Z,84.99
2023-05-04T00:12:15.440Z,84.74
2023-05-04T00:15:01.297Z,84.59
2023-05-04T00:21:19.004Z,84.46
2023-05-04T00:24:05.549Z,84.79
2023-05-04T00:26:51.761Z,83.89
2023-05-04T00:29:38.180Z,83.72
2023-05-04T00:35:57.607Z,85.18
2023-05-04T00:38:52.202Z,84.53
2023-05-04T00:41:45.638Z,84.17
2023-05-04T00:44:41.204Z,84.08
2023-05-04T00:47:33.736Z,83.49
2023-05-04T00:50:27.106Z,83.06
2023-05-04T00:53:19.791Z,83.16
2023-05-04T00:56:16.097Z,83.36
2023-05-04T00:59:08.437Z,83.43
2023-05-04T01:02:09.575Z,82.51
2023-05-04T01:05:02.822Z,82.99
2023-05-04T01:11:28.561Z,83.95
2023-05-04T01:14:49.907Z,84.65
2023-05-04T01:17:43.006Z,84.82
2023-05-04T01:20:36.196Z,83.84
2023-05-04T01:23:30.025Z,85.08
2023-05-04T01:26:25.672Z,84.86
2023-05-04T01:29:20.975Z,84.39
2023-05-04T01:32:16.072Z,84.44
2023-05-04T01:35:09.176Z,84.79
2023-05-04T01:38:01.635Z,83.93
2023-05-04T01:40:56.820Z,84.85
2023-05-04T01:47:10.684Z,84.62
2023-05-04T01:53:50.525Z,86.06
2023-05-04T01:56:45.226Z,85.25
2023-05-04T02:02:48.448Z,85.02
2023-05-04T02:05:44.359Z,85.57
2023-05-04T02:08:36.495Z,85.69
2023-05-04T02:11:28.889Z,84.25
2023-05-04T02:14:22.673Z,85.06
2023-05-04T02:17:15.858Z,84.95
2023-05-04T02:20:10.125Z,85.13
2023-05-04T02:23:02.616Z,84.63
2023-05-04T02:25:55.951Z,84.85
2023-05-04T02:28:49.756Z,85.21
2023-05-04T02:31:44.075Z,85.21
2023-05-04T02:34:36.971Z,85.05
2023-05-04T02:37:29.599Z,85.37
2023-05-04T02:40:22.862Z,84.73
2023-05-04T02:43:15.775Z,85.76
2023-05-04T02:46:08.878Z,85.37
2023-05-04T02:49:03.005Z,86.44
2023-05-04T02:51:55.679Z,86.49
2023-05-04T02:58:01.130Z,86.33
2023-05-04T03:00:54.559Z,86.38
2023-05-04T03:03:47.570Z,86.11
2023-05-04T03:06:42.264Z,85.78
2023-05-04T03:09:34.413Z,85.95
2023-05-04T03:12:26.724Z,85.50
2023-05-04T03:15:19.295Z,85.13
2023-05-04T03:18:11.596Z,85.66
2023-05-04T03:21:04.610Z,85.84
2023-05-04T03:23:59.492Z,86.38
2023-05-04T03:26:53.546Z,85.89
2023-05-04T03:29:46.767Z,85.87
2023-05-04T03:32:40.584Z,86.18
2023-05-04T03:35:33.671Z,86.22
2023-05-04T03:38:28.528Z,85.35
2023-05-04T03:41:26.303Z,85.60
2023-05-04T03:44:18.649Z,85.45
2023-05-04T03:47:11.451Z,85.53
2023-05-04T03:50:03.998Z,84.58
2023-05-04T03:52:56.870Z,84.76
2023-05-04T03:55:51.557Z,85.02
2023-05-04T04:01:35.427Z,84.45
2023-05-04T04:07:41.318Z,85.43
2023-05-04T04:13:49.932Z,84.96
2023-05-04T04:16:44.246Z,85.64
2023-05-04T04:19:36.252Z,85.53
2023-05-04T04:25:39.397Z,85.28
2023-05-04T04:31:49.309Z,85.67
2023-05-04T04:34:41.599Z,86.25
2023-05-04T04:37:34.442Z,85.94
2023-05-04T04:43:47.925Z,85.86
2023-05-04T04:46:40.583Z,86.14
2023-05-04T04:49:34.890Z,86.16
2023-05-04T04:52:27.654Z,86.39
2023-05-04T04:55:20.804Z,86.42
2023-05-04T04:58:13.604Z,86.67
2023-05-04T05:01:07.949Z,86.86
2023-05-04T05:04:00.675Z,86.48
2023-05-04T05:10:09.458Z,86.74
2023-05-04T05:16:14.145Z,86.51
2023-05-04T05:19:06.703Z,86.53
2023-05-04T05:25:08.119Z,84.55
2023-05-04T05:28:00.674Z,83.10
2023-05-04T05:30:53.967Z,81.79
2023-05-04T05:34:02.616Z,80.40
2023-05-04T05:36:53.667Z,78.17
2023-05-04T05:39:46.779Z,77.31
2023-05-04T05:45:53.469Z,75.13
2023-05-04T05:52:02.057Z,74.24
2023-05-04T05:58:10.932Z,72.28
2023-05-04T06:04:17.310Z,70.47
2023-05-04T06:07:09.766Z,69.55
2023-05-04T06:10:02.737Z,68.50
2023-05-04T06:12:55.678Z,67.27
2023-05-04T06:15:52.935Z,66.27
2023-05-04T06:18:46.128Z,66.09
2023-05-04T06:21:39.850Z,64.73
2023-05-04T06:24:32.772Z,62.65
2023-05-04T06:27:28.696Z,62.02
2023-05-04T06:30:24.185Z,61.50
2023-05-04T06:33:17.183Z,60.84
2023-05-04T06:36:10.314Z,59.49
2023-05-04T06:39:04.159Z,58.23
2023-05-04T06:41:57.018Z,57.86
2023-05-04T06:44:52.153Z,57.44
2023-05-04T06:47:44.481Z,54.95
2023-05-04T06:53:48.632Z,52.60
2023-05-04T07:00:10.563Z,46.91
2023-05-04T07:03:03.809Z,45.12
2023-05-04T07:09:09.053Z,37.29
2023-05-04T07:12:01.471Z,36.87
2023-05-04T07:14:53.617Z,37.90
2023-05-04T07:17:48.433Z,36.63
2023-05-04T07:20:42.900Z,35.51
2023-05-04T07:23:35.703Z,35.62
2023-05-04T07:26:34.047Z,37.46
2023-05-04T07:29:26.554Z,35.30
2023-05-04T07:32:19.744Z,34.30
2023-05-04T07:35:14.637Z,35.07
2023-05-04T07:38:08.127Z,37.35
2023-05-04T07:41:00.505Z,38.62
2023-05-04T07:43:52.700Z,38.53
2023-05-04T07:46:45.586Z,38.10
2023-05-04T07:49:38.785Z,38.99
2023-05-04T07:52:33.538Z,38.82
2023-05-04T07:55:28.812Z,37.98
2023-05-04T08:01:57.894Z,35.04
2023-05-04T08:05:08.614Z,36.62
2023-05-04T08:07:58.796Z,35.90
2023-05-04T08:14:38.528Z,35.61
2023-05-04T08:17:46.757Z,35.45
2023-05-04T08:20:38.604Z,33.72
2023-05-04T08:23:34.048Z,32.04
2023-05-04T08:26:26.874Z,32.74
2023-05-04T08:29:31.534Z,32.39
2023-05-04T08:32:24.682Z,31.74
2023-05-04T08:35:18.078Z,32.82
2023-05-04T08:38:10.346Z,32.84
2023-05-04T08:41:04.887Z,33.06
2023-05-04T08:43:59.447Z,37.33
2023-05-04T08:47:16.937Z,32.96
2023-05-04T08:50:10.593Z,34.09
2023-05-04T08:53:19.800Z,35.25
2023-05-04T08:56:14.501Z,35.34
2023-05-04T09:02:28.920Z,35.82
2023-05-04T09:05:22.049Z,33.60
2023-05-04T09:08:15.259Z,34.26
2023-05-04T09:11:07.529Z,35.70
2023-05-04T09:14:00.966Z,35.27
2023-05-04T09:20:14.911Z,38.01
2023-05-04T09:26:12.528Z,35.14
2023-05-04T09:29:16.138Z,36.86
2023-05-04T09:32:12.225Z,34.42
2023-05-04T09:35:06.278Z,34.32
2023-05-04T09:37:58.848Z,35.01
2023-05-04T09:40:52.045Z,33.41
2023-05-04T09:43:48.140Z,34.34
2023-05-04T09:46:41.911Z,34.66
2023-05-04T09:49:36.188Z,34.34
2023-05-04T09:52:27.678Z,34.29
2023-05-04T09:55:21.577Z,36.67
2023-05-04T09:58:15.869Z,34.44
2023-05-04T10:01:09.225Z,32.46
2023-05-04T10:04:03.913Z,32.49
2023-05-04T10:06:57.289Z,33.70
2023-05-04T10:09:50.177Z,33.50
2023-05-04T10:12:59.886Z,32.81
2023-05-04T10:16:01.070Z,34.72
2023-05-04T10:22:18.537Z,36.64
2023-05-04T10:25:23.700Z,34.08
2023-05-04T10:28:28.531Z,33.08
2023-05-04T10:34:49.801Z,33.72
2023-05-04T10:37:37.905Z,35.03
2023-05-04T10:40:37.501Z,33.63
2023-05-04T10:46:35.984Z,33.01
2023-05-04T10:49:22.840Z,34.84
2023-05-04T10:52:10.652Z,32.62
2023-05-04T10:58:04.807Z,33.38
2023-05-04T11:00:51.513Z,33.96
2023-05-04T11:07:08.602Z,33.35
2023-05-04T11:10:38.927Z,33.16
2023-05-04T11:13:35.074Z,33.55
2023-05-04T11:16:28.480Z,35.37
2023-05-04T11:22:56.416Z,34.28
2023-05-04T11:25:48.391Z,37.41
2023-05-04T11:28:42.987Z,37.57
2023-05-04T11:31:35.451Z,36.75
2023-05-04T11:34:27.704Z,33.67
2023-05-04T11:37:34.748Z,32.20
2023-05-04T11:40:27.992Z,33.69
2023-05-04T11:43:21.041Z,32.08
2023-05-04T11:46:10.258Z,32.61
2023-05-04T11:49:04.044Z,31.01
2023-05-04T11:52:06.861Z,29.64
2023-05-04T11:54:59.704Z,31.85
2023-05-04T12:01:27.139Z,32.20
2023-05-04T12:04:19.629Z,32.49
2023-05-04T12:07:12.744Z,32.38
2023-05-04T12:10:06.328Z,31.03
2023-05-04T12:13:23.922Z,31.93
2023-05-04T12:16:18.000Z,34.92
2023-05-04T12:19:13.350Z,34.93
2023-05-04T12:25:22.455Z,36.31
2023-05-04T12:28:14.808Z,36.05
2023-05-04T12:31:07.838Z,37.64
2023-05-04T12:34:00.601Z,34.08
2023-05-04T12:36:55.932Z,35.97
2023-05-04T12:39:48.834Z,35.57
2023-05-04T12:42:42.240Z,34.27
2023-05-04T12:45:34.590Z,35.97
2023-05-04T12:48:21.943Z,33.38
2023-05-04T12:51:14.731Z,32.72
2023-05-04T12:54:09.159Z,32.50
2023-05-04T12:57:02.227Z,36.85
2023-05-04T12:59:54.808Z,34.13
2023-05-04T13:02:47.948Z,34.61
2023-05-04T13:05:40.986Z,34.87
2023-05-04T13:11:47.428Z,33.90
2023-05-04T13:14:40.153Z,37.47
2023-05-04T13:17:33.772Z,33.45
2023-05-04T13:23:37.516Z,34.86
2023-05-04T13:26:29.692Z,33.41
2023-05-04T13:29:24.379Z,35.37
2023-05-04T13:32:34.347Z,34.28
2023-05-04T13:35:24.240Z,35.07
2023-05-04T13:38:16.792Z,32.82
2023-05-04T13:41:09.522Z,35.07
2023-05-04T13:44:01.659Z,31.41
2023-05-04T13:46:56.305Z,31.76
2023-05-04T13:49:49.026Z,34.01
2023-05-04T13:52:41.573Z,34.02
2023-05-04T13:55:33.832Z,32.63
2023-05-04T13:58:27.241Z,33.70
2023-05-04T14:01:19.583Z,33.62
2023-05-04T14:04:13.109Z,34.36
2023-05-04T14:07:05.668Z,33.92
2023-05-04T14:09:59.678Z,34.99
2023-05-04T14:12:52.991Z,34.52
2023-05-04T14:15:45.860Z,31.42
2023-05-04T14:21:47.531Z,32.11
2023-05-04T14:24:40.692Z,31.64
2023-05-04T14:27:35.170Z,31.08
2023-05-04T14:30:41.803Z,31.38
2023-05-04T14:33:34.575Z,30.22
2023-05-04T14:36:26.769Z,31.33
2023-05-04T14:39:21.237Z,32.72
2023-05-04T14:42:13.663Z,31.57
2023-05-04T14:45:07.952Z,31.96
2023-05-04T14:51:22.781Z,31.16
2023-05-04T14:57:33.534Z,31.45
2023-05-04T15:00:25.980Z,33.39
2023-05-04T15:03:19.127Z,31.56
2023-05-04T15:06:12.263Z,30.45
2023-05-04T15:12:21.391Z,32.39
2023-05-04T15:15:15.425Z,32.50
2023-05-04T15:21:36.560Z,32.66
2023-05-04T15:24:28.498Z,30.97
2023-05-04T15:27:20.772Z,32.05
2023-05-04T15:30:16.392Z,33.69
2023-05-04T15:33:10.442Z,34.90
2023-05-04T15:36:06.676Z,33.75
2023-05-04T15:38:59.775Z,34.38
2023-05-04T15:41:52.740Z,34.68
2023-05-04T15:44:45.715Z,35.17
2023-05-04T15:47:40.766Z,32.67
2023-05-04T15:50:33.640Z,34.36
2023-05-04T15:53:26.946Z,34.82
2023-05-04T15:56:20.407Z,32.18
2023-05-04T15:59:12.955Z,32.56
2023-05-04T16:02:07.964Z,33.24
2023-05-04T16:05:37.990Z,33.90
2023-05-04T16:08:32.132Z,33.28
2023-05-04T16:14:53.903Z,35.21
2023-05-04T16:17:46.931Z,33.02
2023-05-04T16:20:39.974Z,35.62
2023-05-04T16:23:33.810Z,34.86
2023-05-04T16:26:26.774Z,34.13
2023-05-04T16:29:19.703Z,36.29
2023-05-04T16:32:12.747Z,36.79
2023-05-04T16:35:06.991Z,37.56
2023-05-04T16:38:00.328Z,36.50
2023-05-04T16:40:53.997Z,37.99
2023-05-04T16:43:48.784Z,37.51
2023-05-04T16:49:54.076Z,38.17
2023-05-04T16:52:46.917Z,38.40
2023-05-04T16:55:40.668Z,38.37
2023-05-04T16:58:35.311Z,38.45
2023-05-04T17:01:31.868Z,39.74
2023-05-04T17:04:27.308Z,38.06
2023-05-04T17:07:19.767Z,38.89
2023-05-04T17:10:12.969Z,39.05
2023-05-04T17:13:07.015Z,39.07
2023-05-04T17:16:01.085Z,39.49
2023-05-04T17:18:53.943Z,38.98
2023-05-04T17:21:46.832Z,41.19
2023-05-04T17:24:40.017Z,39.59
2023-05-04T17:27:32.361Z,39.43
2023-05-04T17:30:24.827Z,40.69
2023-05-04T17:33:19.033Z,40.56
2023-05-04T17:36:12.437Z,40.64
2023-05-04T17:39:04.987Z,41.39
2023-05-04T17:41:58.235Z,42.24
2023-05-04T17:44:50.950Z,42.45
2023-05-04T17:51:01.401Z,43.90
2023-05-04T17:53:53.821Z,44.75
2023-05-04T17:56:46.686Z,44.69
2023-05-04T18:03:00.871Z,45.11
2023-05-04T18:05:53.789Z,46.55
2023-05-04T18:08:48.077Z,47.70
2023-05-04T18:11:40.935Z,48.92
2023-05-04T18:14:34.001Z,49.40
2023-05-04T18:17:28.568Z,50.59
2023-05-04T18:20:20.939Z,49.90
2023-05-04T18:23:13.782Z,50.74
2023-05-04T18:26:07.982Z,51.26
2023-05-04T18:29:07.913Z,51.48
2023-05-04T18:32:10.644Z,51.75
2023-05-04T18:35:04.033Z,52.83
2023-05-04T18:37:56.781Z,53.84
2023-05-04T18:40:53.380Z,54.79
2023-05-04T18:43:47.276Z,55.03
2023-05-04T18:46:40.242Z,54.77
2023-05-04T18:49:32.703Z,56.93
2023-05-04T18:52:25.890Z,58.21
2023-05-04T18:55:18.804Z,58.82
2023-05-04T18:58:12.255Z,59.62
2023-05-04T19:01:06.402Z,61.24
2023-05-04T19:07:11.171Z,62.23
2023-05-04T19:10:03.933Z,62.72
2023-05-04T19:12:57.517Z,61.55
2023-05-04T19:15:49.932Z,60.98
2023-05-04T19:18:45.512Z,61.19
2023-05-04T19:21:37.729Z,61.79
2023-05-04T19:27:50.734Z,62.68
2023-05-04T19:30:43.656Z,63.77
2023-05-04T19:33:47.295Z,63.89
2023-05-04T19:36:42.136Z,64.44
2023-05-04T19:39:34.773Z,65.07
2023-05-04T19:42:28.226Z,65.23
2023-05-04T19:45:20.801Z,65.99
2023-05-04T19:48:16.216Z,66.53
2023-05-04T19:51:08.910Z,67.40
2023-05-04T19:54:03.294Z,67.81
2023-05-04T20:00:13.122Z,68.08
2023-05-04T20:03:06.020Z,68.13
2023-05-04T20:05:59.107Z,68.10
2023-05-04T20:08:58.245Z,67.43
2023-05-04T20:11:52.235Z,67.33
2023-05-04T20:14:44.998Z,67.24
2023-05-04T20:17:37.967Z,67.27
2023-05-04T20:20:30.660Z,66.69
2023-05-04T20:23:23.030Z,66.60
2023-05-04T20:29:29.995Z,66.66
2023-05-04T20:32:22.707Z,66.83
2023-05-04T20:38:45.003Z,67.24
2023-05-04T20:42:15.114Z,68.39
2023-05-04T20:45:09.983Z,68.92
2023-05-04T20:48:20.102Z,68.75
2023-05-04T20:51:14.340Z,68.26
2023-05-04T20:54:07.956Z,68.15
2023-05-04T20:56:56.414Z,68.21
2023-05-04T20:59:49.015Z,68.57
2023-05-04T21:02:43.474Z,68.78
2023-05-04T21:05:39.069Z,68.32
2023-05-04T21:08:32.122Z,68.18
2023-05-04T21:11:24.944Z,68.47
2023-05-04T21:17:49.709Z,69.14
2023-05-04T21:21:20.066Z,69.61
2023-05-04T21:24:13.884Z,70.08
2023-05-04T21:27:22.983Z,70.51
2023-05-04T21:30:13.804Z,70.63
2023-05-04T21:33:08.113Z,70.67
2023-05-04T21:36:11.000Z,70.45
2023-05-04T21:39:02.461Z,70.74
2023-05-04T21:41:54.636Z,70.48
2023-05-04T21:44:47.037Z,70.96
2023-05-04T21:47:39.753Z,71.28
2023-05-04T21:50:34.167Z,71.31
2023-05-04T21:53:26.946Z,72.11
2023-05-04T21:56:19.980Z,73.40
2023-05-04T21:59:12.707Z,74.40
2023-05-04T22:02:06.485Z,74.17
2023-05-04T22:04:58.979Z,74.75
2023-05-04T22:07:53.090Z,75.63
2023-05-04T22:10:59.869Z,77.50
2023-05-04T22:13:53.000Z,78.28
2023-05-04T22:16:46.378Z,78.78
2023-05-04T22:19:38.593Z,79.65
2023-05-04T22:22:31.234Z,80.25
2023-05-04T22:25:25.598Z,79.97
2023-05-04T22:28:18.072Z,79.96
2023-05-04T22:31:10.799Z,80.21
2023-05-04T22:34:03.635Z,80.36
2023-05-04T22:36:56.086Z,80.22
2023-05-04T22:39:48.665Z,80.40
2023-05-04T22:46:03.010Z,80.09
2023-05-04T22:52:20.791Z,80.48
2023-05-04T22:58:20.702Z,80.48
2023-05-04T23:04:26.455Z,79.97
2023-05-04T23:07:18.969Z,79.49
2023-05-04T23:10:11.725Z,80.30
2023-05-04T23:13:04.663Z,80.74
2023-05-04T23:15:56.860Z,80.25
2023-05-04T23:18:49.860Z,80.03
2023-05-04T23:21:44.279Z,80.90
2023-05-04T23:24:37.213Z,80.34
2023-05-04T23:27:26.769Z,80.00
2023-05-04T23:30:20.117Z,80.27
2023-05-04T23:33:45.058Z,80.00
2023-05-04T23:36:31.412Z,80.45
2023-05-04T23:42:37.435Z,81.03
2023-05-04T23:45:23.259Z,81.25
2023-05-04T23:48:09.483Z,81.16
2023-05-04T23:50:57.383Z,80.95
2023-05-04T23:53:43.392Z,81.24
2023-05-04T23:56:29.777Z,81.64
2023-05-04T23:59:17.283Z,81.90
